Barrington, New Hampshire
Current Conditions -  °F | °C
As of 7:51 AM on Thursday 27 Nov 2014 (Local Time) from KDAW Reporting Station
Few Clouds Few Clouds  
Wind Chill: 30°   Ceiling: Unl
Heat Index: 30°   Visibility: 10mi
Dew Point: 28°   Wind: 0mph
Humidity: 92%   Direction: NA
Pressure: 29.84"   Gusts: NA
Location:  43.22°N, 71.05°W
Report Text: KDAW 271251Z AUTO 00000KT 10SM FEW034 M01/M02 A2984 RMK AO2 SLP106 T10111022 $
Loading
Personal Weather Stations






























Interactive Weather Map New forecast layout! Learn more

10-Day Weather Forecast

Advertisements
Track Severe Weather on mobile